Punta Gialla — IWUC — position and weather

sailwx.info

Track history (hours):
 
Tides and Currents Weather Stations Pressure Air Temp Water Temp Dewpoint Dewpoint Depression Visibility Wind Speed Wind Dir Waves Ship Positions

Punta Gialla

Last reported at 2016-Sep-26 20:33 UTC. Time now 2016-Sep-26 22:33 UTC.
Position N 44°24' E 008°54'.

Length 52 m; draft 1.7 m.

Type: Tanker. MMSI: 247077500.

Date/timePositionNaut miles runAvg speedWind from/ knotsBaromVisibWave heightAir tempDewpointWater temp
2016-Sep-26 20:33N 44°24' E 008°54'0 0.0
2016-Sep-26 19:33N 44°24' E 008°54'0 0.0
2016-Sep-26 15:33N 44°24' E 008°54'0 0.0
2016-Sep-26 13:33N 44°24' E 008°54'0 0.2
2016-Sep-26 11:33N 44°24' E 008°55'0 0.2
2016-Sep-26 08:33N 44°24' E 008°54'0 0.0
2016-Sep-26 02:33N 44°24' E 008°54'0 0.0
2016-Sep-26 01:33N 44°24' E 008°54'0 0.0
2016-Sep-26 00:33N 44°24' E 008°54'0 0.0
2016-Sep-25 21:33N 44°24' E 008°54'0 0.0
2016-Sep-25 17:33N 44°24' E 008°54'0 0.0
2016-Sep-25 16:33N 44°24' E 008°54'0 0.0
2016-Sep-25 15:33N 44°24' E 008°54'0 0.0
2016-Sep-25 14:33N 44°24' E 008°54'10 5.1
2016-Sep-25 12:33N 44°19' E 008°42'7 7.4
2016-Sep-25 11:34N 44°18' E 008°32'2 1.9
2016-Sep-25 10:33N 44°19' E 008°29'0 0.0
2016-Sep-25 09:34N 44°19' E 008°29'0 0.2
2016-Sep-25 07:34N 44°19' E 008°30'18 6.0
2016-Sep-25 04:33N 44°24' E 008°54'0 0.1
2016-Sep-25 00:34N 44°24' E 008°54'0 0.0
2016-Sep-24 22:34N 44°24' E 008°54'0 0.0
2016-Sep-24 21:34N 44°24' E 008°54'0 0.0
2016-Sep-24 19:34N 44°24' E 008°54'0 0.0
2016-Sep-24 18:34N 44°24' E 008°54'0 0.0
2016-Sep-24 17:33N 44°24' E 008°54'0 0.0
2016-Sep-24 16:33N 44°24' E 008°54'0 0.0
2016-Sep-24 14:33N 44°24' E 008°54'0 0.0
2016-Sep-24 12:34N 44°24' E 008°54'0 0.0
2016-Sep-24 10:34N 44°24' E 008°54'0 0.0
2016-Sep-24 09:34N 44°24' E 008°54'0 0.0
2016-Sep-24 03:33N 44°24' E 008°54'0 0.0
2016-Sep-24 02:33N 44°24' E 008°54'0 0.0
2016-Sep-24 01:33N 44°24' E 008°54'0 0.0
2016-Sep-24 00:33N 44°24' E 008°54'0 0.0
2016-Sep-23 19:33N 44°24' E 008°54'0 0.0
2016-Sep-23 17:33N 44°24' E 008°54'0 0.0
2016-Sep-23 16:33N 44°24' E 008°54'0 0.0
2016-Sep-23 15:33N 44°24' E 008°54'0 0.0
2016-Sep-23 13:33N 44°24' E 008°54'0 0.0
2016-Sep-23 09:33N 44°24' E 008°54'0 0.0
2016-Sep-23 06:33N 44°24' E 008°54'0 0.0
2016-Sep-23 04:33N 44°24' E 008°54'0 0.0
2016-Sep-23 03:33N 44°24' E 008°54'0 0.0
2016-Sep-23 02:33N 44°24' E 008°54'1 1.0
2016-Sep-23 01:33N 44°24' E 008°53'3 2.6
2016-Sep-23 00:33N 44°25' E 008°50'0 0.0
2016-Sep-22 23:33N 44°25' E 008°50'0 0.0
2016-Sep-22 20:33N 44°25' E 008°50'0 0.0
2016-Sep-22 12:33N 44°25' E 008°50'4 0.5
2016-Sep-22 04:33N 44°24' E 008°54'0 0.0
2016-Sep-22 03:33N 44°24' E 008°54'0 0.0
2016-Sep-22 00:33N 44°24' E 008°54'0 0.0
2016-Sep-21 23:33N 44°24' E 008°54'0 0.0
2016-Sep-21 22:33N 44°24' E 008°54'0 0.0
2016-Sep-21 19:33N 44°24' E 008°54'0 0.1
2016-Sep-21 16:33N 44°24' E 008°55'0 0.0
2016-Sep-21 09:33N 44°24' E 008°54'0 0.0
2016-Sep-21 08:33N 44°24' E 008°54'0 0.0
2016-Sep-21 05:33N 44°24' E 008°54'0 0.0
2016-Sep-21 03:34N 44°24' E 008°54'0 0.0
2016-Sep-21 02:33N 44°24' E 008°54'21 2.4
2016-Sep-20 17:33N 44°16' E 008°27'4 1.4
2016-Sep-20 14:33N 44°16' E 008°33'6 6.4
2016-Sep-20 13:33N 44°17' E 008°41'12 3.9
2016-Sep-20 10:33N 44°24' E 008°54'0 0.1
2016-Sep-20 08:33N 44°24' E 008°54'0 0.0
2016-Sep-20 07:33N 44°24' E 008°54'0 0.0
2016-Sep-20 06:33N 44°24' E 008°54'0 0.0
2016-Sep-20 02:33N 44°24' E 008°54'0 0.0
2016-Sep-19 23:33N 44°24' E 008°54'12 2.9
2016-Sep-19 19:33N 44°18' E 008°40'7 7.3
2016-Sep-19 18:33N 44°16' E 008°31'3 1.3
2016-Sep-19 16:33N 44°16' E 008°27'9 4.4
2016-Sep-19 14:33N 44°16' E 008°39'7 6.7
2016-Sep-19 13:33N 44°19' E 008°47'6 6.4
2016-Sep-19 12:33N 44°24' E 008°53'1 1.1
2016-Sep-19 11:33N 44°24' E 008°54'0 0.0
2016-Sep-19 09:33N 44°24' E 008°54'0 0.0
2016-Sep-19 07:33N 44°24' E 008°54'0 0.0
2016-Sep-19 06:33N 44°24' E 008°54'0 0.0
2016-Sep-19 03:33N 44°24' E 008°54'0 0.0
2016-Sep-19 02:33N 44°24' E 008°54'0 0.0
2016-Sep-19 00:33N 44°24' E 008°54'0 0.0
2016-Sep-18 19:33N 44°24' E 008°54'0 0.0
2016-Sep-18 15:33N 44°24' E 008°54'0 0.0
2016-Sep-18 14:33N 44°24' E 008°54'0 0.0
2016-Sep-18 10:33N 44°24' E 008°54'0 0.0
2016-Sep-18 09:33N 44°24' E 008°54'0 0.0
2016-Sep-18 02:33N 44°24' E 008°54'0 0.0
2016-Sep-18 01:33N 44°24' E 008°54'0 0.0
2016-Sep-18 00:33N 44°24' E 008°54'0 0.0
2016-Sep-17 22:33N 44°24' E 008°54'0 0.0
2016-Sep-17 21:33N 44°24' E 008°54'0 0.0
2016-Sep-17 20:33N 44°24' E 008°54'0 0.0
2016-Sep-17 19:16N 44°24' E 008°54'0 0.0
2016-Sep-17 13:33N 44°24' E 008°54'0 0.0
2016-Sep-17 12:33N 44°24' E 008°54'0 0.0
2016-Sep-17 10:33N 44°24' E 008°54'0 0.0
2016-Sep-17 09:33N 44°24' E 008°54'0 0.0
2016-Sep-17 08:33N 44°24' E 008°54'0 0.0
2016-Sep-17 07:33N 44°24' E 008°54'0 0.0
2016-Sep-17 05:33N 44°24' E 008°54'0 0.0
2016-Sep-17 04:33N 44°24' E 008°54'0 0.0
2016-Sep-17 00:33N 44°24' E 008°54'  
Track history (hours):
 
Tides and Currents Weather Stations Pressure Air Temp Water Temp Dewpoint Dewpoint Depression Visibility Wind Speed Wind Dir Waves Ship Positions

Punta Gialla

Last reported at 2016-Sep-26 20:33 UTC. Time now 2016-Sep-26 22:33 UTC.
Position N 44°24' E 008°54'.

Length 52 m; draft 1.7 m.

Type: Tanker. MMSI: 247077500.

Date/timePositionNaut miles runAvg speedWind from/ knotsBaromVisibWave heightAir tempDewpointWater temp
2016-Sep-26 20:33N 44°24' E 008°54'0 0.0
2016-Sep-26 19:33N 44°24' E 008°54'0 0.0
2016-Sep-26 15:33N 44°24' E 008°54'0 0.0
2016-Sep-26 13:33N 44°24' E 008°54'0 0.2
2016-Sep-26 11:33N 44°24' E 008°55'0 0.2
2016-Sep-26 08:33N 44°24' E 008°54'0 0.0
2016-Sep-26 02:33N 44°24' E 008°54'0 0.0
2016-Sep-26 01:33N 44°24' E 008°54'0 0.0
2016-Sep-26 00:33N 44°24' E 008°54'0 0.0
2016-Sep-25 21:33N 44°24' E 008°54'0 0.0
2016-Sep-25 17:33N 44°24' E 008°54'0 0.0
2016-Sep-25 16:33N 44°24' E 008°54'0 0.0
2016-Sep-25 15:33N 44°24' E 008°54'0 0.0
2016-Sep-25 14:33N 44°24' E 008°54'10 5.1
2016-Sep-25 12:33N 44°19' E 008°42'7 7.4
2016-Sep-25 11:34N 44°18' E 008°32'2 1.9
2016-Sep-25 10:33N 44°19' E 008°29'0 0.0
2016-Sep-25 09:34N 44°19' E 008°29'0 0.2
2016-Sep-25 07:34N 44°19' E 008°30'18 6.0
2016-Sep-25 04:33N 44°24' E 008°54'0 0.1
2016-Sep-25 00:34N 44°24' E 008°54'0 0.0
2016-Sep-24 22:34N 44°24' E 008°54'0 0.0
2016-Sep-24 21:34N 44°24' E 008°54'0 0.0
2016-Sep-24 19:34N 44°24' E 008°54'0 0.0
2016-Sep-24 18:34N 44°24' E 008°54'0 0.0
2016-Sep-24 17:33N 44°24' E 008°54'0 0.0
2016-Sep-24 16:33N 44°24' E 008°54'0 0.0
2016-Sep-24 14:33N 44°24' E 008°54'0 0.0
2016-Sep-24 12:34N 44°24' E 008°54'0 0.0
2016-Sep-24 10:34N 44°24' E 008°54'0 0.0
2016-Sep-24 09:34N 44°24' E 008°54'0 0.0
2016-Sep-24 03:33N 44°24' E 008°54'0 0.0
2016-Sep-24 02:33N 44°24' E 008°54'0 0.0
2016-Sep-24 01:33N 44°24' E 008°54'0 0.0
2016-Sep-24 00:33N 44°24' E 008°54'0 0.0
2016-Sep-23 19:33N 44°24' E 008°54'0 0.0
2016-Sep-23 17:33N 44°24' E 008°54'0 0.0
2016-Sep-23 16:33N 44°24' E 008°54'0 0.0
2016-Sep-23 15:33N 44°24' E 008°54'0 0.0
2016-Sep-23 13:33N 44°24' E 008°54'0 0.0
2016-Sep-23 09:33N 44°24' E 008°54'0 0.0
2016-Sep-23 06:33N 44°24' E 008°54'0 0.0
2016-Sep-23 04:33N 44°24' E 008°54'0 0.0
2016-Sep-23 03:33N 44°24' E 008°54'0 0.0
2016-Sep-23 02:33N 44°24' E 008°54'1 1.0
2016-Sep-23 01:33N 44°24' E 008°53'3 2.6
2016-Sep-23 00:33N 44°25' E 008°50'0 0.0
2016-Sep-22 23:33N 44°25' E 008°50'0 0.0
2016-Sep-22 20:33N 44°25' E 008°50'0 0.0
2016-Sep-22 12:33N 44°25' E 008°50'4 0.5
2016-Sep-22 04:33N 44°24' E 008°54'0 0.0
2016-Sep-22 03:33N 44°24' E 008°54'0 0.0
2016-Sep-22 00:33N 44°24' E 008°54'0 0.0
2016-Sep-21 23:33N 44°24' E 008°54'0 0.0
2016-Sep-21 22:33N 44°24' E 008°54'0 0.0
2016-Sep-21 19:33N 44°24' E 008°54'0 0.1
2016-Sep-21 16:33N 44°24' E 008°55'0 0.0
2016-Sep-21 09:33N 44°24' E 008°54'0 0.0
2016-Sep-21 08:33N 44°24' E 008°54'0 0.0
2016-Sep-21 05:33N 44°24' E 008°54'0 0.0
2016-Sep-21 03:34N 44°24' E 008°54'0 0.0
2016-Sep-21 02:33N 44°24' E 008°54'21 2.4
2016-Sep-20 17:33N 44°16' E 008°27'4 1.4
2016-Sep-20 14:33N 44°16' E 008°33'6 6.4
2016-Sep-20 13:33N 44°17' E 008°41'12 3.9
2016-Sep-20 10:33N 44°24' E 008°54'0 0.1
2016-Sep-20 08:33N 44°24' E 008°54'0 0.0
2016-Sep-20 07:33N 44°24' E 008°54'0 0.0
2016-Sep-20 06:33N 44°24' E 008°54'0 0.0
2016-Sep-20 02:33N 44°24' E 008°54'0 0.0
2016-Sep-19 23:33N 44°24' E 008°54'12 2.9
2016-Sep-19 19:33N 44°18' E 008°40'7 7.3
2016-Sep-19 18:33N 44°16' E 008°31'3 1.3
2016-Sep-19 16:33N 44°16' E 008°27'9 4.4
2016-Sep-19 14:33N 44°16' E 008°39'7 6.7
2016-Sep-19 13:33N 44°19' E 008°47'6 6.4
2016-Sep-19 12:33N 44°24' E 008°53'1 1.1
2016-Sep-19 11:33N 44°24' E 008°54'0 0.0
2016-Sep-19 09:33N 44°24' E 008°54'0 0.0
2016-Sep-19 07:33N 44°24' E 008°54'0 0.0
2016-Sep-19 06:33N 44°24' E 008°54'0 0.0
2016-Sep-19 03:33N 44°24' E 008°54'0 0.0
2016-Sep-19 02:33N 44°24' E 008°54'0 0.0
2016-Sep-19 00:33N 44°24' E 008°54'0 0.0
2016-Sep-18 19:33N 44°24' E 008°54'0 0.0
2016-Sep-18 15:33N 44°24' E 008°54'0 0.0
2016-Sep-18 14:33N 44°24' E 008°54'0 0.0
2016-Sep-18 10:33N 44°24' E 008°54'0 0.0
2016-Sep-18 09:33N 44°24' E 008°54'0 0.0
2016-Sep-18 02:33N 44°24' E 008°54'0 0.0
2016-Sep-18 01:33N 44°24' E 008°54'0 0.0
2016-Sep-18 00:33N 44°24' E 008°54'0 0.0
2016-Sep-17 22:33N 44°24' E 008°54'0 0.0
2016-Sep-17 21:33N 44°24' E 008°54'0 0.0
2016-Sep-17 20:33N 44°24' E 008°54'0 0.0
2016-Sep-17 19:16N 44°24' E 008°54'0 0.0
2016-Sep-17 13:33N 44°24' E 008°54'0 0.0
2016-Sep-17 12:33N 44°24' E 008°54'0 0.0
2016-Sep-17 10:33N 44°24' E 008°54'0 0.0
2016-Sep-17 09:33N 44°24' E 008°54'0 0.0
2016-Sep-17 08:33N 44°24' E 008°54'0 0.0
2016-Sep-17 07:33N 44°24' E 008°54'0 0.0
2016-Sep-17 05:33N 44°24' E 008°54'0 0.0
2016-Sep-17 04:33N 44°24' E 008°54'0 0.0
2016-Sep-17 00:33N 44°24' E 008°54'  

Dump ship's entire track history